Terminal Aerodrome Forecast
Issued by NWS Central Illinois

Home | Current Version | Previous Version | Text Only | Print | Product List | Glossary On
Versions: 1 2 3 4 5 6 7 8 9 10 11 12 13 14 15 16 17 18 19 20 21
000
FTUS43 KILX 241700
TAFSPI
TAF
KSPI 241733Z 2418/2518 24008KT 4SM BR OVC003
     FM241900 23008KT P6SM SCT015 BKN250
     FM250400 21005KT 4SM BR BKN025
     FM251000 25003KT 2SM BR SCT025
     FM251400 30008KT P6SM SCT015=

USA.gov is the U.S. government's official web portal to all federal, state and local government web resources and services.